Lamar — WDE7053 — position and weather

sailwx.info

Track history (hours):
 
Tides and Currents Weather Stations Pressure Air Temp Water Temp Dewpoint Dewpoint Depression Visibility Wind Speed Wind Dir Waves Ship Positions

Lamar

Owner: G & H Towing Company, Galveston, TX. More information available from US FCC via Universal Licensing System and Coast Guard Vessel Documentation Center.

Last reported at 2018-Jan-19 01:25 UTC. Time now 2018-Jan-22 00:12 UTC.
Position N 29°34' W 094°56'.

Length 30 m; draft 6.5 m.

Type: Tug. MMSI: 367388340.

Date/timePositionNaut miles runAvg speedWind from/ knotsBaromVisibWave heightAir tempDewpointWater temp
2018-Jan-19 01:25N 29°34' W 094°56'511.3
2018-Jan-19 01:00N 29°39' W 094°58'4 2.0
2018-Jan-18 22:48N 29°42' W 095°01'1 4.0
2018-Jan-18 22:30N 29°42' W 094°60'2 3.5
2018-Jan-18 22:00N 29°40' W 094°59'3 5.8
2018-Jan-18 21:24N 29°37' W 094°60'1 3.2
2018-Jan-18 21:01N 29°37' W 095°01'0 0.0
2018-Jan-18 20:31N 29°37' W 095°01'0 0.0
2018-Jan-18 20:01N 29°37' W 095°01'0 0.0
2018-Jan-18 19:30N 29°37' W 095°01'0 0.0
2018-Jan-18 19:00N 29°37' W 095°01'0 0.0
2018-Jan-18 18:24N 29°37' W 095°01'0 0.0
2018-Jan-18 18:00N 29°37' W 095°01'0 0.0
2018-Jan-18 17:31N 29°37' W 095°01'0 0.0
2018-Jan-18 17:01N 29°37' W 095°01'0 0.0
2018-Jan-18 16:31N 29°37' W 095°01'1 1.9
2018-Jan-18 16:00N 29°37' W 094°60'0 0.0
2018-Jan-18 15:30N 29°37' W 094°60'0 0.0
2018-Jan-18 15:00N 29°37' W 094°60'0 0.0
2018-Jan-18 14:30N 29°37' W 094°60'0 0.0
2018-Jan-18 14:00N 29°37' W 094°60'0 0.0
2018-Jan-18 13:31N 29°37' W 094°60'1 2.0
2018-Jan-18 13:00N 29°37' W 095°01'0 0.0
2018-Jan-18 12:29N 29°37' W 095°01'1 2.8
2018-Jan-18 12:01N 29°37' W 094°60'0 0.3
2018-Jan-18 11:22N 29°37' W 094°59'2 5.1
2018-Jan-18 11:00N 29°37' W 094°57'2 4.7
2018-Jan-18 10:30N 29°37' W 094°60'0 0.0
2018-Jan-18 10:00N 29°37' W 094°60'0 0.0
2018-Jan-18 09:30N 29°37' W 094°60'0 0.0
2018-Jan-18 09:00N 29°37' W 094°60'0 0.0
2018-Jan-18 08:30N 29°37' W 094°60'0 0.0
2018-Jan-18 08:00N 29°37' W 094°60'0 0.6
2018-Jan-18 07:30N 29°37' W 095°00'1 2.0
2018-Jan-18 07:00N 29°37' W 095°01'1 1.7
2018-Jan-18 06:30N 29°37' W 095°00'0 0.0
2018-Jan-18 06:00N 29°37' W 095°00'1 1.7
2018-Jan-18 05:28N 29°37' W 094°59'2 4.8
2018-Jan-18 05:00N 29°36' W 094°57'3 5.6
2018-Jan-18 04:30N 29°34' W 094°55'  
2018-Jan-11 22:55N 29°44' W 095°08'1 0.1
2018-Jan-11 17:07N 29°44' W 095°07'1 0.1
2018-Jan-11 12:27N 29°44' W 095°08'0 0.0
2018-Jan-11 11:53N 29°44' W 095°08'1 1.5
2018-Jan-11 11:25N 29°44' W 095°07'3 0.4
2018-Jan-11 05:05N 29°45' W 095°04'110.0
2018-Jan-11 04:59N 29°44' W 095°03'2 3.1
2018-Jan-11 04:12N 29°43' W 095°01'0 2.5
2018-Jan-11 04:00N 29°42' W 095°01'0 0.0
2018-Jan-11 03:21N 29°42' W 095°01'0 0.0
2018-Jan-11 03:00N 29°42' W 095°01'0 0.0
2018-Jan-11 02:15N 29°42' W 095°01'0 0.0
2018-Jan-11 02:00N 29°42' W 095°01'0 0.0
2018-Jan-11 01:27N 29°42' W 095°01'0 0.0
2018-Jan-11 00:57N 29°42' W 095°01'0 1.1
2018-Jan-11 00:30N 29°43' W 095°01'1 1.0
2018-Jan-10 23:30N 29°44' W 095°01'2 3.6
2018-Jan-10 23:00N 29°42' W 095°01'1 2.8
2018-Jan-10 22:29N 29°41' W 094°60'0 0.0
2018-Jan-10 21:53N 29°41' W 094°60'0 0.0
2018-Jan-10 21:26N 29°41' W 094°60'1 2.1
2018-Jan-10 21:00N 29°42' W 094°60'4 0.5
2018-Jan-10 14:05N 29°44' W 095°03'2 0.9
2018-Jan-10 11:21N 29°42' W 095°01'3 7.5
2018-Jan-10 11:01N 29°41' W 094°59'1 2.7
2018-Jan-10 10:30N 29°41' W 095°00'0 0.1
2018-Jan-10 09:57N 29°41' W 095°00'0 0.0
2018-Jan-10 08:09N 29°41' W 095°00'1 3.9
2018-Jan-10 08:00N 29°41' W 094°60'2 1.7
2018-Jan-10 06:44N 29°43' W 095°01'0 1.2
2018-Jan-10 06:24N 29°42' W 095°01'0 0.0
2018-Jan-10 06:00N 29°42' W 095°01'0 0.0
2018-Jan-10 05:30N 29°42' W 095°01'0 0.0
2018-Jan-10 04:45N 29°42' W 095°01'0 0.0
2018-Jan-10 04:24N 29°42' W 095°01'1 3.1
2018-Jan-10 03:58N 29°44' W 095°01'1 1.0
2018-Jan-10 02:42N 29°42' W 095°01'0 0.0
2018-Jan-09 22:44N 29°42' W 095°01'0 0.0
2018-Jan-09 22:26N 29°42' W 095°01'5 2.2
2018-Jan-09 20:09N 29°38' W 094°58'1 9.4
2018-Jan-09 20:00N 29°39' W 094°58'2 3.8
2018-Jan-09 19:30N 29°41' W 094°60'0 0.8
2018-Jan-09 19:00N 29°41' W 094°59'2 4.5
2018-Jan-09 18:31N 29°39' W 094°58'4 7.3
2018-Jan-09 18:00N 29°42' W 095°01'1 1.0
2018-Jan-09 17:30N 29°42' W 095°01'0 0.0
2018-Jan-09 17:00N 29°42' W 095°01'0 0.0
2018-Jan-09 16:30N 29°42' W 095°01'0 0.0
2018-Jan-09 16:01N 29°42' W 095°01'2 3.8
2018-Jan-09 15:21N 29°44' W 095°03'0 0.1
2018-Jan-09 15:00N 29°44' W 095°03'2 4.0
2018-Jan-09 14:30N 29°46' W 095°04'2 0.9
2018-Jan-09 12:50N 29°45' W 095°06'1 3.0
2018-Jan-09 12:30N 29°46' W 095°05'5 7.0
2018-Jan-09 11:47N 29°42' W 095°01'0 0.1
2018-Jan-09 08:46N 29°42' W 095°01'  
Track history (hours):
 
Tides and Currents Weather Stations Pressure Air Temp Water Temp Dewpoint Dewpoint Depression Visibility Wind Speed Wind Dir Waves Ship Positions

Lamar

Owner: G & H Towing Company, Galveston, TX. More information available from US FCC via Universal Licensing System and Coast Guard Vessel Documentation Center.

Last reported at 2018-Jan-19 01:25 UTC. Time now 2018-Jan-22 00:12 UTC.
Position N 29°34' W 094°56'.

Length 30 m; draft 6.5 m.

Type: Tug. MMSI: 367388340.

Date/timePositionNaut miles runAvg speedWind from/ knotsBaromVisibWave heightAir tempDewpointWater temp
2018-Jan-19 01:25N 29°34' W 094°56'511.3
2018-Jan-19 01:00N 29°39' W 094°58'4 2.0
2018-Jan-18 22:48N 29°42' W 095°01'1 4.0
2018-Jan-18 22:30N 29°42' W 094°60'2 3.5
2018-Jan-18 22:00N 29°40' W 094°59'3 5.8
2018-Jan-18 21:24N 29°37' W 094°60'1 3.2
2018-Jan-18 21:01N 29°37' W 095°01'0 0.0
2018-Jan-18 20:31N 29°37' W 095°01'0 0.0
2018-Jan-18 20:01N 29°37' W 095°01'0 0.0
2018-Jan-18 19:30N 29°37' W 095°01'0 0.0
2018-Jan-18 19:00N 29°37' W 095°01'0 0.0
2018-Jan-18 18:24N 29°37' W 095°01'0 0.0
2018-Jan-18 18:00N 29°37' W 095°01'0 0.0
2018-Jan-18 17:31N 29°37' W 095°01'0 0.0
2018-Jan-18 17:01N 29°37' W 095°01'0 0.0
2018-Jan-18 16:31N 29°37' W 095°01'1 1.9
2018-Jan-18 16:00N 29°37' W 094°60'0 0.0
2018-Jan-18 15:30N 29°37' W 094°60'0 0.0
2018-Jan-18 15:00N 29°37' W 094°60'0 0.0
2018-Jan-18 14:30N 29°37' W 094°60'0 0.0
2018-Jan-18 14:00N 29°37' W 094°60'0 0.0
2018-Jan-18 13:31N 29°37' W 094°60'1 2.0
2018-Jan-18 13:00N 29°37' W 095°01'0 0.0
2018-Jan-18 12:29N 29°37' W 095°01'1 2.8
2018-Jan-18 12:01N 29°37' W 094°60'0 0.3
2018-Jan-18 11:22N 29°37' W 094°59'2 5.1
2018-Jan-18 11:00N 29°37' W 094°57'2 4.7
2018-Jan-18 10:30N 29°37' W 094°60'0 0.0
2018-Jan-18 10:00N 29°37' W 094°60'0 0.0
2018-Jan-18 09:30N 29°37' W 094°60'0 0.0
2018-Jan-18 09:00N 29°37' W 094°60'0 0.0
2018-Jan-18 08:30N 29°37' W 094°60'0 0.0
2018-Jan-18 08:00N 29°37' W 094°60'0 0.6
2018-Jan-18 07:30N 29°37' W 095°00'1 2.0
2018-Jan-18 07:00N 29°37' W 095°01'1 1.7
2018-Jan-18 06:30N 29°37' W 095°00'0 0.0
2018-Jan-18 06:00N 29°37' W 095°00'1 1.7
2018-Jan-18 05:28N 29°37' W 094°59'2 4.8
2018-Jan-18 05:00N 29°36' W 094°57'3 5.6
2018-Jan-18 04:30N 29°34' W 094°55'  
2018-Jan-11 22:55N 29°44' W 095°08'1 0.1
2018-Jan-11 17:07N 29°44' W 095°07'1 0.1
2018-Jan-11 12:27N 29°44' W 095°08'0 0.0
2018-Jan-11 11:53N 29°44' W 095°08'1 1.5
2018-Jan-11 11:25N 29°44' W 095°07'3 0.4
2018-Jan-11 05:05N 29°45' W 095°04'110.0
2018-Jan-11 04:59N 29°44' W 095°03'2 3.1
2018-Jan-11 04:12N 29°43' W 095°01'0 2.5
2018-Jan-11 04:00N 29°42' W 095°01'0 0.0
2018-Jan-11 03:21N 29°42' W 095°01'0 0.0
2018-Jan-11 03:00N 29°42' W 095°01'0 0.0
2018-Jan-11 02:15N 29°42' W 095°01'0 0.0
2018-Jan-11 02:00N 29°42' W 095°01'0 0.0
2018-Jan-11 01:27N 29°42' W 095°01'0 0.0
2018-Jan-11 00:57N 29°42' W 095°01'0 1.1
2018-Jan-11 00:30N 29°43' W 095°01'1 1.0
2018-Jan-10 23:30N 29°44' W 095°01'2 3.6
2018-Jan-10 23:00N 29°42' W 095°01'1 2.8
2018-Jan-10 22:29N 29°41' W 094°60'0 0.0
2018-Jan-10 21:53N 29°41' W 094°60'0 0.0
2018-Jan-10 21:26N 29°41' W 094°60'1 2.1
2018-Jan-10 21:00N 29°42' W 094°60'4 0.5
2018-Jan-10 14:05N 29°44' W 095°03'2 0.9
2018-Jan-10 11:21N 29°42' W 095°01'3 7.5
2018-Jan-10 11:01N 29°41' W 094°59'1 2.7
2018-Jan-10 10:30N 29°41' W 095°00'0 0.1
2018-Jan-10 09:57N 29°41' W 095°00'0 0.0
2018-Jan-10 08:09N 29°41' W 095°00'1 3.9
2018-Jan-10 08:00N 29°41' W 094°60'2 1.7
2018-Jan-10 06:44N 29°43' W 095°01'0 1.2
2018-Jan-10 06:24N 29°42' W 095°01'0 0.0
2018-Jan-10 06:00N 29°42' W 095°01'0 0.0
2018-Jan-10 05:30N 29°42' W 095°01'0 0.0
2018-Jan-10 04:45N 29°42' W 095°01'0 0.0
2018-Jan-10 04:24N 29°42' W 095°01'1 3.1
2018-Jan-10 03:58N 29°44' W 095°01'1 1.0
2018-Jan-10 02:42N 29°42' W 095°01'0 0.0
2018-Jan-09 22:44N 29°42' W 095°01'0 0.0
2018-Jan-09 22:26N 29°42' W 095°01'5 2.2
2018-Jan-09 20:09N 29°38' W 094°58'1 9.4
2018-Jan-09 20:00N 29°39' W 094°58'2 3.8
2018-Jan-09 19:30N 29°41' W 094°60'0 0.8
2018-Jan-09 19:00N 29°41' W 094°59'2 4.5
2018-Jan-09 18:31N 29°39' W 094°58'4 7.3
2018-Jan-09 18:00N 29°42' W 095°01'1 1.0
2018-Jan-09 17:30N 29°42' W 095°01'0 0.0
2018-Jan-09 17:00N 29°42' W 095°01'0 0.0
2018-Jan-09 16:30N 29°42' W 095°01'0 0.0
2018-Jan-09 16:01N 29°42' W 095°01'2 3.8
2018-Jan-09 15:21N 29°44' W 095°03'0 0.1
2018-Jan-09 15:00N 29°44' W 095°03'2 4.0
2018-Jan-09 14:30N 29°46' W 095°04'2 0.9
2018-Jan-09 12:50N 29°45' W 095°06'1 3.0
2018-Jan-09 12:30N 29°46' W 095°05'5 7.0
2018-Jan-09 11:47N 29°42' W 095°01'0 0.1
2018-Jan-09 08:46N 29°42' W 095°01'  

Dump ship's entire track history